createdAt,value
2023-03-05T00:00:55.753Z,96010.59
2023-03-05T00:05:58.284Z,95837.94
2023-03-05T00:11:08.617Z,96268.00
2023-03-05T00:16:13.009Z,96259.47
2023-03-05T00:21:29.727Z,96241.59
2023-03-05T00:26:34.703Z,95905.13
2023-03-05T00:31:37.375Z,96216.00
2023-03-05T00:36:41.644Z,96122.22
2023-03-05T00:41:44.713Z,96402.81
2023-03-05T00:46:47.799Z,95621.13
2023-03-05T00:51:50.338Z,96169.97
2023-03-05T00:56:52.570Z,95505.59
2023-03-05T01:01:54.836Z,95824.19
2023-03-05T01:06:57.177Z,95751.97
2023-03-05T01:12:00.356Z,95835.31
2023-03-05T01:17:02.943Z,96371.25
2023-03-05T01:22:06.760Z,95798.66
2023-03-05T01:27:10.016Z,95833.56
2023-03-05T01:32:12.286Z,96255.22
2023-03-05T01:37:14.683Z,96240.66
2023-03-05T01:42:16.881Z,96329.44
2023-03-05T01:47:19.064Z,96215.97
2023-03-05T01:52:22.639Z,96364.44
2023-03-05T01:57:35.128Z,96364.44
2023-03-05T02:02:37.328Z,96320.06
2023-03-05T02:07:42.928Z,96010.59
2023-03-05T02:12:45.373Z,96231.31
2023-03-05T02:18:08.346Z,96359.31
2023-03-05T02:23:10.514Z,96278.25
2023-03-05T02:28:16.973Z,96378.06
2023-03-05T02:33:19.994Z,95925.44
2023-03-05T02:38:23.143Z,96369.56
2023-03-05T02:43:25.400Z,95803.59
2023-03-05T02:48:28.544Z,96023.34
2023-03-05T02:53:30.813Z,96323.47
2023-03-05T02:58:33.186Z,96360.16
2023-03-05T03:03:35.517Z,96289.34
2023-03-05T03:08:37.785Z,96295.28
2023-03-05T03:13:40.605Z,96349.91
2023-03-05T03:18:44.597Z,96325.16
2023-03-05T03:23:46.809Z,95968.53
2023-03-05T03:28:49.032Z,96145.16
2023-03-05T03:33:51.166Z,96234.72
2023-03-05T03:38:53.330Z,96257.78
2023-03-05T03:43:55.501Z,96361.88
2023-03-05T03:48:57.651Z,96296.16
2023-03-05T03:54:00.273Z,96146.88
2023-03-05T03:59:02.686Z,96282.47
2023-03-05T04:04:05.863Z,96343.06
2023-03-05T04:09:08.527Z,96338.81
2023-03-05T04:14:10.648Z,96076.16
2023-03-05T04:19:12.959Z,96235.56
2023-03-05T04:24:15.378Z,96320.81
2023-03-05T04:29:17.626Z,96273.84
2023-03-05T04:34:19.730Z,96250.88
2023-03-05T04:39:24.576Z,95958.53
2023-03-05T04:44:26.747Z,96290.13
2023-03-05T04:49:29.725Z,96335.34
2023-03-05T04:54:31.935Z,96288.44
2023-03-05T04:59:34.092Z,96312.31
2023-03-05T05:04:36.568Z,96287.56
2023-03-05T05:09:40.240Z,96233.81
2023-03-05T05:14:42.334Z,96333.63
2023-03-05T05:19:45.196Z,96262.78
2023-03-05T05:24:47.385Z,96324.25
2023-03-05T05:29:53.284Z,96360.13
2023-03-05T05:34:56.984Z,96385.72
2023-03-05T05:39:59.389Z,95823.66
2023-03-05T05:45:03.310Z,96279.84
2023-03-05T05:50:08.123Z,96229.50
2023-03-05T05:55:12.652Z,96209.91
2023-03-05T06:00:16.054Z,95749.06
2023-03-05T06:05:18.305Z,95715.06
2023-03-05T06:10:21.218Z,95925.25
2023-03-05T06:15:32.159Z,96022.38
2023-03-05T06:21:08.219Z,96261.94
2023-03-05T06:26:12.377Z,95730.34
2023-03-05T06:31:19.937Z,96437.78
2023-03-05T06:36:24.828Z,96262.81
2023-03-05T06:41:29.663Z,96343.88
2023-03-05T06:46:34.651Z,96273.03
2023-03-05T06:51:39.149Z,96213.34
2023-03-05T06:56:44.210Z,96491.59
2023-03-05T07:01:46.393Z,95500.81
2023-03-05T07:06:48.676Z,95741.19
2023-03-05T07:11:50.996Z,96008.72
2023-03-05T07:16:53.321Z,96123.78
2023-03-05T07:21:55.707Z,96060.69
2023-03-05T07:26:58.021Z,95597.69
2023-03-05T07:32:01.318Z,96288.38
2023-03-05T07:37:04.845Z,96297.72
2023-03-05T07:42:09.626Z,96167.25
2023-03-05T07:47:27.175Z,95753.94
2023-03-05T07:52:29.739Z,96427.50
2023-03-05T07:57:32.186Z,95692.88
2023-03-05T08:02:34.464Z,96087.63
2023-03-05T08:07:36.732Z,96306.19
2023-03-05T08:12:39.176Z,96289.09
2023-03-05T08:17:41.406Z,96080.22
2023-03-05T08:22:43.616Z,96474.38
2023-03-05T08:27:47.781Z,96121.09
2023-03-05T08:32:50.595Z,96461.66
2023-03-05T08:37:53.097Z,96005.88
2023-03-05T08:42:55.324Z,96487.16
2023-03-05T08:47:58.279Z,96518.00
2023-03-05T08:53:00.446Z,96510.28
2023-03-05T08:58:03.433Z,96524.81
2023-03-05T09:03:05.905Z,96121.50
2023-03-05T09:08:09.983Z,96070.50
2023-03-05T09:13:12.879Z,95984.41
2023-03-05T09:18:15.072Z,96537.41
2023-03-05T09:23:17.321Z,96559.81
2023-03-05T09:28:19.573Z,96125.53
2023-03-05T09:33:21.797Z,96220.25
2023-03-05T09:38:24.000Z,96065.97
2023-03-05T09:43:29.935Z,96737.75
2023-03-05T09:48:41.080Z,96750.56
2023-03-05T09:54:02.913Z,96762.56
2023-03-05T09:59:33.944Z,96727.38
2023-03-05T10:05:06.858Z,96698.28
2023-03-05T10:10:18.780Z,96660.63
2023-03-05T10:15:36.556Z,96765.75
2023-03-05T10:20:42.509Z,96797.56
2023-03-05T10:26:06.095Z,96717.00
2023-03-05T10:31:14.672Z,96169.63
2023-03-05T10:36:28.918Z,96820.66
2023-03-05T10:41:34.055Z,96828.34
2023-03-05T10:46:38.149Z,96208.13
2023-03-05T10:51:48.131Z,96472.91
2023-03-05T10:57:17.925Z,96852.44
2023-03-05T11:02:22.393Z,96750.47
2023-03-05T11:07:24.630Z,96867.81
2023-03-05T11:12:28.729Z,96167.09
2023-03-05T11:17:45.539Z,96808.63
2023-03-05T11:23:25.432Z,96893.50
2023-03-05T11:28:51.017Z,96914.81
2023-03-05T11:34:00.157Z,96921.63
2023-03-05T11:39:08.323Z,96937.03
2023-03-05T11:44:16.578Z,96947.28
2023-03-05T11:49:24.844Z,96917.06
2023-03-05T11:54:34.242Z,96356.19
2023-03-05T11:59:40.367Z,96534.53
2023-03-05T12:04:42.666Z,96454.47
2023-03-05T12:09:48.012Z,96867.03
2023-03-05T12:15:17.878Z,96784.88
2023-03-05T12:20:47.965Z,97019.00
2023-03-05T12:25:53.458Z,97020.69
2023-03-05T12:31:17.414Z,96809.59
2023-03-05T12:36:22.528Z,97034.44
2023-03-05T12:41:27.479Z,97037.88
2023-03-05T12:46:30.309Z,97024.03
2023-03-05T12:51:38.122Z,96519.50
2023-03-05T12:56:45.324Z,96495.38
2023-03-05T13:02:03.748Z,97019.63
2023-03-05T13:07:12.965Z,96915.69
2023-03-05T13:12:15.510Z,96735.38
2023-03-05T13:17:39.370Z,97088.19
2023-03-05T13:22:46.712Z,97107.72
2023-03-05T13:27:49.036Z,97127.34
2023-03-05T13:32:53.439Z,96748.66
2023-03-05T13:37:56.678Z,96920.25
2023-03-05T13:43:13.862Z,96777.81
2023-03-05T13:48:20.419Z,97134.88
2023-03-05T13:53:32.259Z,97039.44
2023-03-05T13:58:53.913Z,97160.59
2023-03-05T14:04:03.967Z,97000.03
2023-03-05T14:09:20.389Z,97023.84
2023-03-05T14:14:23.956Z,96418.81
2023-03-05T14:19:39.025Z,97188.59
2023-03-05T14:24:52.783Z,97107.63
2023-03-05T14:29:55.266Z,96546.41
2023-03-05T14:34:59.807Z,97012.66
2023-03-05T14:40:08.101Z,97059.16
2023-03-05T14:45:15.418Z,97068.91
2023-03-05T14:50:26.330Z,96663.19
2023-03-05T14:55:32.103Z,96409.44
2023-03-05T15:00:34.587Z,97008.50
2023-03-05T15:05:37.669Z,97009.56
2023-03-05T15:10:40.079Z,96219.56
2023-03-05T15:15:43.420Z,96576.81
2023-03-05T15:20:47.063Z,97098.78
2023-03-05T15:25:56.192Z,96641.91
2023-03-05T15:31:08.463Z,96868.38
2023-03-05T15:36:50.559Z,97250.97
2023-03-05T15:42:00.964Z,97252.59
2023-03-05T15:47:06.585Z,97302.94
2023-03-05T15:52:18.196Z,96840.00
2023-03-05T15:57:24.389Z,96942.34
2023-03-05T16:02:26.873Z,96792.88
2023-03-05T16:20:49.765Z,96937.72
2023-03-05T16:54:07.425Z,97203.84
2023-03-05T16:59:13.125Z,97250.31
2023-03-05T17:16:02.070Z,97355.28
2023-03-05T17:21:07.833Z,96863.97
2023-03-05T17:26:18.642Z,97169.19
2023-03-05T17:31:35.353Z,96524.22
2023-03-05T17:36:43.304Z,97112.38
2023-03-05T17:41:48.119Z,97007.75
2023-03-05T17:46:50.793Z,97276.81
2023-03-05T17:51:54.677Z,96823.25
2023-03-05T17:57:00.318Z,96588.44
2023-03-05T18:02:06.084Z,97053.63
2023-03-05T18:07:17.020Z,97181.00
2023-03-05T18:12:30.056Z,97358.59
2023-03-05T18:17:35.248Z,97307.59
2023-03-05T18:22:40.246Z,97368.78
2023-03-05T18:28:15.318Z,97365.44
2023-03-05T18:33:23.215Z,97377.34
2023-03-05T18:38:29.364Z,97372.22
2023-03-05T18:43:35.075Z,97133.22
2023-03-05T18:48:38.500Z,97309.22
2023-03-05T18:53:46.285Z,97324.34
2023-03-05T18:58:50.290Z,97377.22
2023-03-05T19:03:57.601Z,97378.09
2023-03-05T19:09:48.718Z,97138.38
2023-03-05T19:14:54.287Z,97187.50
2023-03-05T19:20:00.813Z,97352.75
2023-03-05T19:25:04.024Z,96911.13
2023-03-05T19:30:10.434Z,96830.94
2023-03-05T19:35:19.925Z,97343.28
2023-03-05T19:40:26.843Z,97339.88
2023-03-05T19:45:34.790Z,96913.75
2023-03-05T19:56:07.632Z,97388.13
2023-03-05T20:01:23.366Z,97307.97
2023-03-05T20:06:30.733Z,97387.34
2023-03-05T20:11:35.414Z,97303.59
2023-03-05T20:16:38.890Z,97295.97
2023-03-05T20:21:42.764Z,97390.00
2023-03-05T20:26:48.015Z,97390.81
2023-03-05T20:31:53.841Z,97383.97
2023-03-05T20:36:58.728Z,97390.78
2023-03-05T20:42:02.166Z,96965.16
2023-03-05T20:47:45.063Z,97395.91
2023-03-05T20:52:48.608Z,96925.56
2023-03-05T20:57:51.187Z,96928.53
2023-03-05T21:02:57.186Z,97369.88
2023-03-05T21:08:02.662Z,97178.88
2023-03-05T21:13:07.385Z,97185.38
2023-03-05T21:18:10.981Z,96930.41
2023-03-05T21:23:14.750Z,97405.16
2023-03-05T21:28:18.075Z,97133.56
2023-03-05T21:33:30.053Z,97403.41
2023-03-05T21:38:35.049Z,97387.75
2023-03-05T21:43:39.512Z,97407.63
2023-03-05T21:48:41.923Z,97380.06
2023-03-05T21:53:46.955Z,97353.75
2023-03-05T21:58:54.888Z,97305.84
2023-03-05T22:03:57.554Z,97359.25
2023-03-05T22:09:01.513Z,97353.19
2023-03-05T22:14:06.160Z,97297.16
2023-03-05T22:19:10.732Z,97283.25
2023-03-05T22:24:19.055Z,97180.75
2023-03-05T22:29:22.738Z,97430.66
2023-03-05T22:34:25.939Z,97302.22
2023-03-05T22:39:29.468Z,97396.25
2023-03-05T22:44:33.720Z,97020.81
2023-03-05T22:49:38.460Z,96710.72
2023-03-05T22:54:41.103Z,97208.22
2023-03-05T22:59:45.106Z,96830.38
2023-03-05T23:04:55.064Z,97456.19
2023-03-05T23:10:06.914Z,96804.03
2023-03-05T23:15:15.294Z,96893.22
2023-03-05T23:20:21.162Z,97451.81
2023-03-05T23:25:26.897Z,97280.59
2023-03-05T23:30:33.440Z,97414.28
2023-03-05T23:35:41.680Z,97273.59
2023-03-05T23:40:49.460Z,96944.69
2023-03-05T23:46:02.525Z,97395.25
2023-03-05T23:51:10.035Z,97418.53
2023-03-05T23:56:15.828Z,97423.66
